Time;durP1;ratioP1;P1;durP2;ratioP2;P2;SDS_P1;SDS_P2;PMS_P1;PMS_P2;Temp;Humidity;BMP_temperature;BMP_pressure;BME280_temperature;BME280_humidity;BME280_pressure;Samples;Min_cycle;Max_cycle;Signal;HPM_P1;HPM_P2
2022/09/30 08:25:44;;;;;;;5.77;5.03;;;8.60;99.90;;;;;;5138935;27;20297;-84
2022/09/30 08:28:11;;;;;;;5.50;4.87;;;8.60;99.90;;;;;;5138797;27;20196;-84
2022/09/30 08:30:37;;;;;;;6.90;5.57;;;8.60;99.90;;;;;;5137501;28;20169;-84
2022/09/30 08:33:03;;;;;;;5.60;5.00;;;8.70;99.90;;;;;;5136679;28;20172;-84
2022/09/30 08:35:29;;;;;;;5.57;5.07;;;8.70;99.90;;;;;;5136517;28;20299;-84
2022/09/30 08:37:55;;;;;;;5.77;5.17;;;8.90;99.90;;;;;;5136263;27;20713;-84
2022/09/30 08:40:25;;;;;;;5.97;5.37;;;8.90;99.90;;;;;;5136488;27;20194;-84
2022/09/30 08:43:05;;;;;;;9.47;6.03;;;9.00;99.90;;;;;;5135567;27;20660;-84
2022/09/30 08:45:51;;;;;;;5.20;4.70;;;9.10;99.90;;;;;;5134989;28;20568;-83
2022/09/30 08:48:16;;;;;;;5.50;4.90;;;9.10;99.90;;;;;;5134484;27;20179;-83
2022/09/30 08:50:52;;;;;;;6.00;5.20;;;9.10;99.90;;;;;;5135318;28;20177;-83
2022/09/30 08:53:26;;;;;;;6.33;5.57;;;9.10;99.90;;;;;;5140601;28;20572;-79
2022/09/30 08:55:56;;;;;;;6.10;5.50;;;9.10;99.90;;;;;;5148144;28;20344;-79
2022/09/30 08:58:31;;;;;;;5.27;4.77;;;9.10;99.90;;;;;;5149785;28;20178;-80
2022/09/30 09:01:09;;;;;;;5.00;4.50;;;9.20;99.90;;;;;;5143871;28;20504;-83
2022/09/30 09:03:35;;;;;;;7.00;5.20;;;9.20;99.90;;;;;;5134908;28;20202;-83
2022/09/30 09:06:26;;;;;;;6.23;5.10;;;9.20;99.90;;;;;;5134921;28;20678;-83
2022/09/30 09:09:03;;;;;;;6.37;5.77;;;9.20;99.90;;;;;;5135362;28;20175;-84
2022/09/30 09:11:47;;;;;;;6.33;5.47;;;9.30;99.90;;;;;;5135396;27;20632;-84
2022/09/30 09:14:45;;;;;;;6.60;5.80;;;9.30;99.90;;;;;;5134291;28;20191;-84
2022/09/30 09:17:44;;;;;;;7.70;6.40;;;9.30;99.90;;;;;;5081368;28;20216;-83
2022/09/30 09:20:20;;;;;;;7.70;6.10;;;9.20;99.90;;;;;;5136865;27;20184;-84
2022/09/30 09:22:47;;;;;;;8.77;6.37;;;9.30;99.90;;;;;;5134114;28;20201;-83
2022/09/30 09:25:24;;;;;;;7.47;6.57;;;9.30;99.90;;;;;;5135604;27;20207;-84
2022/09/30 09:27:59;;;;;;;8.03;6.90;;;9.40;99.90;;;;;;5141777;28;20244;-84
2022/09/30 09:30:42;;;;;;;8.57;6.67;;;9.50;99.90;;;;;;5142216;28;20204;-84
2022/09/30 09:33:26;;;;;;;7.70;6.90;;;9.60;99.90;;;;;;5138405;27;20166;-83
2022/09/30 09:36:10;;;;;;;6.57;5.93;;;9.70;99.90;;;;;;5129442;28;20274;-83
2022/09/30 09:39:08;;;;;;;7.60;6.20;;;9.80;99.90;;;;;;5121662;28;20171;-83
2022/09/30 09:41:43;;;;;;;7.30;5.90;;;9.80;99.90;;;;;;5096100;28;20239;-83
2022/09/30 09:44:16;;;;;;;8.20;6.37;;;9.90;99.90;;;;;;5121597;28;20601;-84
2022/09/30 09:46:48;;;;;;;8.13;6.63;;;9.80;99.90;;;;;;5121625;28;20175;-83
2022/09/30 09:49:27;;;;;;;7.97;6.60;;;9.90;99.90;;;;;;5121754;28;20168;-84
2022/09/30 09:52:12;;;;;;;7.00;6.30;;;9.90;99.90;;;;;;5121532;27;20543;-85
2022/09/30 09:54:46;;;;;;;7.37;6.53;;;10.00;99.90;;;;;;5121931;28;20216;-84
2022/09/30 09:57:15;;;;;;;7.63;6.73;;;10.00;99.90;;;;;;5119243;28;20185;-83
2022/09/30 10:01:04;;;;;;;8.60;6.13;;;10.00;99.90;;;;;;5119892;28;20170;-83
2022/09/30 10:02:59;;;;;;;6.80;6.10;;;10.10;99.90;;;;;;5120335;28;20205;-84
2022/09/30 10:05:25;;;;;;;8.53;7.10;;;10.00;99.90;;;;;;5118915;28;20257;-83
2022/09/30 10:08:10;;;;;;;9.63;7.23;;;10.00;99.90;;;;;;5120143;28;20160;-84
2022/09/30 10:10:54;;;;;;;7.90;6.70;;;10.00;99.90;;;;;;5119184;28;20175;-83
2022/09/30 10:13:41;;;;;;;7.73;6.93;;;10.00;99.90;;;;;;5119073;28;20184;-84
2022/09/30 10:16:30;;;;;;;8.27;6.60;;;9.90;99.90;;;;;;5120155;28;20183;-86
2022/09/30 10:18:57;;;;;;;7.83;7.03;;;10.00;99.90;;;;;;5118384;28;20214;-83
2022/09/30 10:21:25;;;;;;;7.40;6.60;;;10.00;99.90;;;;;;5119141;28;20175;-85
2022/09/30 10:23:51;;;;;;;13.30;7.10;;;10.00;99.90;;;;;;5118190;28;20207;-83
2022/09/30 10:26:20;;;;;;;7.83;6.30;;;10.00;99.90;;;;;;5118256;28;20176;-83
2022/09/30 10:28:50;;;;;;;8.47;6.87;;;10.00;99.90;;;;;;5118310;28;20607;-85
2022/09/30 10:31:33;;;;;;;7.50;6.30;;;10.10;99.90;;;;;;5116605;28;20186;-83
2022/09/30 10:34:03;;;;;;;7.23;6.23;;;10.20;99.90;;;;;;5118191;28;20171;-84
2022/09/30 10:36:35;;;;;;;6.27;5.47;;;10.30;99.90;;;;;;5117517;28;20177;-84
2022/09/30 10:39:19;;;;;;;7.47;6.67;;;10.30;99.90;;;;;;5117926;28;20257;-85
2022/09/30 10:41:45;;;;;;;7.70;6.17;;;10.40;99.90;;;;;;5117711;28;20175;-85
2022/09/30 10:44:18;;;;;;;7.27;6.40;;;10.40;99.90;;;;;;5117725;28;20702;-84
2022/09/30 10:46:46;;;;;;;6.53;5.83;;;10.30;99.90;;;;;;5117734;28;20167;-85
2022/09/30 10:49:35;;;;;;;9.93;7.17;;;10.30;99.90;;;;;;5117354;28;20179;-84
2022/09/30 10:52:02;;;;;;;8.90;6.90;;;10.20;99.90;;;;;;5117502;28;20530;-83
2022/09/30 10:54:50;;;;;;;8.83;7.10;;;10.20;99.90;;;;;;5117187;28;20278;-83
2022/09/30 10:57:22;;;;;;;7.90;6.07;;;10.20;99.90;;;;;;5117297;28;20228;-84
2022/09/30 10:59:49;;;;;;;8.37;6.30;;;10.10;99.90;;;;;;5118145;28;20197;-82
2022/09/30 11:02:37;;;;;;;6.50;5.90;;;10.00;99.90;;;;;;5117308;28;20633;-84
2022/09/30 11:05:21;;;;;;;8.80;6.40;;;9.90;99.90;;;;;;5117027;28;20214;-84
2022/09/30 11:08:01;;;;;;;6.70;6.00;;;9.80;99.90;;;;;;5116697;28;20193;-83
2022/09/30 11:10:46;;;;;;;10.57;7.10;;;9.80;99.90;;;;;;5116448;28;20179;-84
2022/09/30 11:13:40;;;;;;;9.33;6.27;;;9.70;99.90;;;;;;5118420;28;20167;-84
2022/09/30 11:16:33;;;;;;;6.83;5.77;;;9.80;99.90;;;;;;5117734;28;20214;-85
2022/09/30 11:19:22;;;;;;;10.70;6.97;;;9.90;99.90;;;;;;5116418;28;20603;-85
2022/09/30 11:22:26;;;;;;;8.10;6.13;;;10.10;99.90;;;;;;5116041;28;20207;-85
2022/09/30 11:24:53;;;;;;;8.67;6.20;;;10.20;99.90;;;;;;5075610;28;20269;-85
2022/09/30 11:28:16;;;;;;;7.90;6.40;;;10.20;99.90;;;;;;5111201;28;20278;-85
2022/09/30 11:30:50;;;;;;;8.17;6.17;;;10.30;99.90;;;;;;5059761;28;20654;-84
2022/09/30 11:33:29;;;;;;;7.97;6.07;;;10.40;99.90;;;;;;5059525;28;20188;-84
2022/09/30 11:36:12;;;;;;;8.33;6.43;;;10.50;99.90;;;;;;5093563;28;20386;-84
2022/09/30 11:39:14;;;;;;;9.97;6.37;;;10.60;99.90;;;;;;5116288;28;20178;-84
2022/09/30 11:41:44;;;;;;;7.90;7.10;;;10.60;99.90;;;;;;5115989;28;20167;-84
2022/09/30 11:44:33;;;;;;;7.47;6.60;;;10.60;99.90;;;;;;5116966;28;20210;-83
2022/09/30 11:47:35;;;;;;;13.80;11.80;;;10.60;99.90;;;;;;5117127;28;20236;-83
2022/09/30 11:50:20;;;;;;;8.57;7.03;;;10.50;99.90;;;;;;5118914;28;20195;-85
2022/09/30 11:53:02;;;;;;;6.53;5.60;;;10.50;99.90;;;;;;5117890;28;20251;-84
2022/09/30 11:55:48;;;;;;;6.57;5.20;;;10.70;99.90;;;;;;5118070;28;20187;-85
2022/09/30 11:58:20;;;;;;;10.13;7.60;;;11.10;99.90;;;;;;5116211;28;20171;-83
2022/09/30 12:01:09;;;;;;;9.43;8.10;;;11.50;99.90;;;;;;5118010;28;20171;-85
2022/09/30 12:03:42;;;;;;;43.30;32.00;;;11.80;99.90;;;;;;5115996;28;20236;-84
2022/09/30 12:06:23;;;;;;;45.57;38.10;;;11.80;99.90;;;;;;5118166;28;20232;-83
2022/09/30 12:08:55;;;;;;;8.00;7.10;;;11.80;99.90;;;;;;5118086;28;20231;-84
2022/09/30 12:11:45;;;;;;;55.40;44.17;;;11.80;99.90;;;;;;5117442;28;20195;-84
2022/09/30 12:14:30;;;;;;;14.00;12.40;;;11.80;99.90;;;;;;5116409;28;20206;-85
2022/09/30 12:16:58;;;;;;;6.97;6.13;;;11.60;99.90;;;;;;5116084;28;20186;-83
2022/09/30 12:19:31;;;;;;;6.80;6.07;;;11.50;99.90;;;;;;5117259;28;20182;-83
2022/09/30 12:22:20;;;;;;;6.73;6.03;;;11.60;99.90;;;;;;5117708;28;20184;-85
2022/09/30 12:24:46;;;;;;;6.20;5.20;;;11.70;99.90;;;;;;5115701;28;20222;-83
2022/09/30 12:27:26;;;;;;;6.60;5.90;;;11.70;99.90;;;;;;5117364;28;20175;-84
2022/09/30 12:30:18;;;;;;;6.53;5.90;;;11.60;99.90;;;;;;5116779;28;20269;-84
2022/09/30 12:33:10;;;;;;;6.23;5.63;;;11.40;99.90;;;;;;5116894;28;20167;-83
2022/09/30 12:35:51;;;;;;;5.77;4.93;;;11.30;99.90;;;;;;5116353;28;20747;-84
2022/09/30 12:38:48;;;;;;;8.23;5.30;;;11.30;99.90;;;;;;5116777;28;20180;-83
2022/09/30 12:41:55;;;;;;;5.93;5.37;;;11.50;99.90;;;;;;5115537;28;20168;-83
2022/09/30 12:44:51;;;;;;;5.17;4.67;;;11.60;99.90;;;;;;5115331;28;20661;-84
2022/09/30 12:47:26;;;;;;;5.93;5.33;;;11.50;99.90;;;;;;5115130;28;20183;-84
2022/09/30 12:49:54;;;;;;;5.07;4.60;;;11.50;99.90;;;;;;5116668;28;20179;-84
2022/09/30 12:52:21;;;;;;;6.03;5.10;;;11.60;99.90;;;;;;5119159;28;20251;-84
2022/09/30 12:54:55;;;;;;;6.43;5.70;;;11.90;99.90;;;;;;5121575;28;20202;-85
2022/09/30 12:57:30;;;;;;;4.93;4.43;;;11.90;99.90;;;;;;5117042;28;20175;-85
2022/09/30 13:00:01;;;;;;;4.67;4.20;;;12.00;99.90;;;;;;5117787;28;20175;-84
2022/09/30 13:02:32;;;;;;;5.07;4.57;;;12.10;99.90;;;;;;5116205;28;20540;-85
2022/09/30 13:05:25;;;;;;;4.07;3.77;;;12.30;99.90;;;;;;5116768;28;20688;-84
2022/09/30 13:08:03;;;;;;;4.43;4.00;;;12.50;99.90;;;;;;5116455;28;20531;-84
2022/09/30 13:10:33;;;;;;;5.87;4.10;;;12.90;99.90;;;;;;5116504;28;20171;-84
2022/09/30 13:13:22;;;;;;;3.50;3.20;;;12.90;99.90;;;;;;5121328;28;20172;-85
2022/09/30 13:16:01;;;;;;;2.83;2.63;;;12.70;99.90;;;;;;5120028;28;20191;-85
2022/09/30 13:18:28;;;;;;;3.50;3.20;;;12.60;99.90;;;;;;5118898;28;20183;-84
2022/09/30 13:21:07;;;;;;;3.47;3.17;;;12.50;99.90;;;;;;5119434;28;20179;-85
2022/09/30 13:23:57;;;;;;;5.53;3.43;;;12.50;99.90;;;;;;5119241;28;20188;-85
2022/09/30 13:26:30;;;;;;;3.43;3.13;;;12.50;99.90;;;;;;5119021;28;20237;-83
2022/09/30 13:28:58;;;;;;;3.53;2.90;;;12.40;99.90;;;;;;5120038;28;20182;-84
2022/09/30 13:31:28;;;;;;;4.40;3.37;;;12.40;99.90;;;;;;5120744;28;20168;-85
2022/09/30 13:34:02;;;;;;;3.43;3.13;;;12.30;99.90;;;;;;5119005;28;20192;-84
2022/09/30 13:36:37;;;;;;;7.80;3.30;;;12.20;99.90;;;;;;5118859;28;20187;-86
2022/09/30 13:39:15;;;;;;;3.10;2.80;;;12.30;99.90;;;;;;5120232;28;20179;-84
2022/09/30 13:41:43;;;;;;;4.20;2.70;;;12.20;99.90;;;;;;5120255;28;20186;-84
2022/09/30 13:44:31;;;;;;;3.37;2.77;;;12.20;99.90;;;;;;5119535;28;20234;-84
2022/09/30 13:47:04;;;;;;;3.17;2.83;;;12.20;99.90;;;;;;5119744;28;20176;-84
2022/09/30 13:49:33;;;;;;;3.30;3.00;;;12.10;99.90;;;;;;5119798;28;20176;-84
2022/09/30 13:52:01;;;;;;;2.97;2.67;;;12.10;99.90;;;;;;5121172;28;20168;-85
2022/09/30 13:54:32;;;;;;;4.13;2.90;;;12.10;99.90;;;;;;5128518;28;20229;-80
2022/09/30 13:57:00;;;;;;;3.30;3.00;;;12.10;99.90;;;;;;5136935;28;20266;-79
2022/09/30 13:59:44;;;;;;;5.17;4.30;;;12.10;99.90;;;;;;5131759;28;20208;-80
2022/09/30 14:02:12;;;;;;;5.13;4.40;;;12.10;99.90;;;;;;5131264;28;20179;-84
2022/09/30 14:05:19;;;;;;;5.60;3.70;;;12.10;99.90;;;;;;5117902;28;20219;-85
2022/09/30 14:07:53;;;;;;;3.87;3.30;;;12.10;99.90;;;;;;5117163;28;20192;-84
2022/09/30 14:10:37;;;;;;;4.13;3.57;;;12.10;99.90;;;;;;5119818;28;20251;-85
2022/09/30 14:13:34;;;;;;;3.50;2.90;;;12.00;99.90;;;;;;5117410;28;20171;-83
2022/09/30 14:16:12;;;;;;;3.60;3.30;;;12.00;99.90;;;;;;5117676;28;20240;-83
2022/09/30 14:18:47;;;;;;;4.03;3.63;;;11.90;99.90;;;;;;5117621;28;20246;-84
2022/09/30 14:21:25;;;;;;;4.37;3.97;;;11.90;99.90;;;;;;5117241;28;20171;-84
2022/09/30 14:24:16;;;;;;;3.73;3.33;;;11.90;99.90;;;;;;5118678;28;20199;-85
2022/09/30 14:27:19;;;;;;;3.90;3.50;;;11.80;99.90;;;;;;5117806;28;20178;-84
2022/09/30 14:30:22;;;;;;;3.70;3.37;;;11.90;99.90;;;;;;5119155;28;20570;-84
2022/09/30 14:33:09;;;;;;;3.63;3.33;;;11.90;99.90;;;;;;5118716;28;20240;-85
2022/09/30 14:35:38;;;;;;;3.13;2.83;;;11.70;99.90;;;;;;5118963;28;20202;-83
2022/09/30 14:38:23;;;;;;;2.97;2.67;;;11.60;99.90;;;;;;5118136;28;20238;-84
2022/09/30 14:40:55;;;;;;;3.23;2.73;;;11.50;99.90;;;;;;5116831;28;20183;-83
2022/09/30 14:43:27;;;;;;;3.30;3.00;;;11.50;99.90;;;;;;5116639;28;20580;-85
2022/09/30 14:45:55;;;;;;;3.07;2.77;;;11.50;99.90;;;;;;5118768;28;20683;-84
2022/09/30 14:48:31;;;;;;;4.30;3.00;;;11.50;99.90;;;;;;5118019;28;20220;-84
2022/09/30 14:51:08;;;;;;;4.83;3.37;;;11.50;99.90;;;;;;5117044;28;20177;-84
2022/09/30 14:53:38;;;;;;;3.40;3.10;;;11.30;99.90;;;;;;5117594;28;20172;-84
2022/09/30 14:56:37;;;;;;;3.60;2.93;;;11.30;99.90;;;;;;5118259;28;20240;-84
2022/09/30 14:59:25;;;;;;;3.90;2.77;;;11.30;99.90;;;;;;5116668;28;20207;-85
2022/09/30 15:01:57;;;;;;;4.63;3.07;;;11.30;99.90;;;;;;5117239;28;20185;-85
2022/09/30 15:04:30;;;;;;;6.70;3.60;;;11.30;99.90;;;;;;5118500;28;20250;-84
2022/09/30 15:06:59;;;;;;;4.03;3.50;;;11.20;99.90;;;;;;5116993;28;20194;-83
2022/09/30 15:09:31;;;;;;;3.90;3.60;;;11.10;99.90;;;;;;5116819;28;20174;-84
2022/09/30 15:12:18;;;;;;;4.50;3.77;;;11.10;99.90;;;;;;5116459;28;20179;-82
2022/09/30 15:14:57;;;;;;;5.13;4.17;;;11.10;99.90;;;;;;5118104;28;20247;-83
2022/09/30 15:17:34;;;;;;;4.03;2.80;;;11.10;99.90;;;;;;5116358;28;20215;-83
2022/09/30 15:20:00;;;;;;;5.13;4.63;;;11.00;99.90;;;;;;5116135;28;20171;-84
2022/09/30 15:22:28;;;;;;;3.87;3.33;;;10.90;99.90;;;;;;5118231;28;20188;-85
2022/09/30 15:24:55;;;;;;;3.60;3.30;;;10.90;99.90;;;;;;5116789;28;20245;-85
2022/09/30 15:27:24;;;;;;;9.47;3.93;;;10.90;99.90;;;;;;5117745;28;20633;-84
2022/09/30 15:29:59;;;;;;;7.13;3.60;;;10.80;99.90;;;;;;5116939;28;20258;-85
2022/09/30 15:32:35;;;;;;;6.33;3.13;;;10.80;99.90;;;;;;5118524;28;20169;-84
2022/09/30 15:35:05;;;;;;;3.27;2.73;;;10.80;99.90;;;;;;5116178;28;20206;-84
2022/09/30 15:37:32;;;;;;;3.50;3.20;;;10.90;99.90;;;;;;5116869;28;20182;-83
2022/09/30 15:42:55;;;;;;;3.53;2.83;;;10.70;99.90;;;;;;5118219;28;20225;-85
2022/09/30 15:45:39;;;;;;;4.83;3.57;;;10.80;99.90;;;;;;5116596;28;20216;-84
2022/09/30 15:48:13;;;;;;;6.37;4.23;;;10.70;99.90;;;;;;5116990;28;20171;-84
2022/09/30 15:50:58;;;;;;;5.70;4.40;;;10.70;99.90;;;;;;5117888;28;20707;-82
2022/09/30 15:53:30;;;;;;;4.57;3.70;;;10.70;99.90;;;;;;5117854;28;20182;-85
2022/09/30 15:55:58;;;;;;;7.23;4.93;;;10.70;99.90;;;;;;5116262;28;20291;-85
2022/09/30 15:58:34;;;;;;;5.07;4.57;;;10.70;99.90;;;;;;5115959;28;20627;-84
2022/09/30 16:01:23;;;;;;;4.57;4.17;;;10.60;99.90;;;;;;5115896;28;20551;-83
2022/09/30 16:04:04;;;;;;;77.83;69.70;;;10.60;99.90;;;;;;5116345;28;20633;-86
2022/09/30 16:06:33;;;;;;;24.17;21.67;;;10.60;99.90;;;;;;5116830;28;20185;-83
2022/09/30 16:09:02;;;;;;;16.60;13.40;;;10.50;99.90;;;;;;5116735;28;20625;-84
2022/09/30 16:11:29;;;;;;;5.80;5.20;;;10.50;99.90;;;;;;5116895;28;20504;-84
2022/09/30 16:13:56;;;;;;;4.33;3.93;;;10.50;99.90;;;;;;5116145;28;20180;-84
2022/09/30 16:16:28;;;;;;;5.87;4.40;;;10.60;99.90;;;;;;5123519;28;20182;-84
2022/09/30 16:18:55;;;;;;;5.00;4.10;;;10.60;99.90;;;;;;5125322;28;20175;-82
2022/09/30 16:21:43;;;;;;;5.63;4.33;;;10.60;99.90;;;;;;5117518;28;20178;-84
2022/09/30 16:24:35;;;;;;;4.50;3.73;;;10.60;99.90;;;;;;5125188;28;20344;-83
2022/09/30 16:27:21;;;;;;;4.80;4.30;;;10.50;99.90;;;;;;5114907;27;20183;-84
2022/09/30 16:29:46;;;;;;;4.93;4.43;;;10.50;99.90;;;;;;5114105;28;20225;-85
2022/09/30 16:32:12;;;;;;;6.03;4.40;;;10.40;99.90;;;;;;5115619;28;20622;-85
2022/09/30 16:34:39;;;;;;;7.27;4.37;;;10.40;99.90;;;;;;5116234;28;20190;-84
